sensor_id;sensor_type;location;lat;lon;timestamp;pressure;altitude;pressure_sealevel;temperature
74326;BMP180;62741;51.948;7.152;2023-01-01T00:01:40;100133.00;;;17.20
74326;BMP180;62741;51.948;7.152;2023-01-01T00:04:11;100177.00;;;17.20
74326;BMP180;62741;51.948;7.152;2023-01-01T00:06:39;100149.00;;;17.20
74326;BMP180;62741;51.948;7.152;2023-01-01T00:09:08;100113.00;;;17.10
74326;BMP180;62741;51.948;7.152;2023-01-01T00:11:52;100129.00;;;17.10
74326;BMP180;62741;51.948;7.152;2023-01-01T00:14:19;100143.00;;;17.10
74326;BMP180;62741;51.948;7.152;2023-01-01T00:16:46;100149.00;;;17.20
74326;BMP180;62741;51.948;7.152;2023-01-01T00:19:13;100157.00;;;17.20
74326;BMP180;62741;51.948;7.152;2023-01-01T00:21:40;100131.00;;;17.20
74326;BMP180;62741;51.948;7.152;2023-01-01T00:24:09;100132.00;;;17.20
74326;BMP180;62741;51.948;7.152;2023-01-01T00:26:36;100127.00;;;17.30
74326;BMP180;62741;51.948;7.152;2023-01-01T00:29:04;100112.00;;;17.20
74326;BMP180;62741;51.948;7.152;2023-01-01T00:31:31;100114.00;;;17.10
74326;BMP180;62741;51.948;7.152;2023-01-01T00:33:58;100135.00;;;17.20
74326;BMP180;62741;51.948;7.152;2023-01-01T00:36:26;100120.00;;;17.10
74326;BMP180;62741;51.948;7.152;2023-01-01T00:38:54;100129.00;;;17.10
74326;BMP180;62741;51.948;7.152;2023-01-01T00:41:23;100135.00;;;17.10
74326;BMP180;62741;51.948;7.152;2023-01-01T00:43:50;100124.00;;;17.00
74326;BMP180;62741;51.948;7.152;2023-01-01T00:46:17;100136.00;;;17.20
74326;BMP180;62741;51.948;7.152;2023-01-01T00:48:45;100158.00;;;17.30
74326;BMP180;62741;51.948;7.152;2023-01-01T00:51:12;100137.00;;;17.10
74326;BMP180;62741;51.948;7.152;2023-01-01T00:53:39;100131.00;;;17.20
74326;BMP180;62741;51.948;7.152;2023-01-01T00:56:06;100146.00;;;17.70
74326;BMP180;62741;51.948;7.152;2023-01-01T00:58:35;100147.00;;;17.80
74326;BMP180;62741;51.948;7.152;2023-01-01T01:01:02;100158.00;;;17.70
74326;BMP180;62741;51.948;7.152;2023-01-01T01:03:29;100162.00;;;17.60
74326;BMP180;62741;51.948;7.152;2023-01-01T01:05:59;100161.00;;;17.50
74326;BMP180;62741;51.948;7.152;2023-01-01T01:08:36;100135.00;;;17.40
74326;BMP180;62741;51.948;7.152;2023-01-01T01:11:05;100156.00;;;17.30
74326;BMP180;62741;51.948;7.152;2023-01-01T01:13:32;100157.00;;;17.20
74326;BMP180;62741;51.948;7.152;2023-01-01T01:16:00;100149.00;;;17.10
74326;BMP180;62741;51.948;7.152;2023-01-01T01:18:33;100157.00;;;17.00
74326;BMP180;62741;51.948;7.152;2023-01-01T01:21:00;100146.00;;;16.90
74326;BMP180;62741;51.948;7.152;2023-01-01T01:23:27;100161.00;;;16.80
74326;BMP180;62741;51.948;7.152;2023-01-01T01:25:54;100170.00;;;16.70
74326;BMP180;62741;51.948;7.152;2023-01-01T01:28:21;100151.00;;;16.60
74326;BMP180;62741;51.948;7.152;2023-01-01T01:30:48;100171.00;;;16.60
74326;BMP180;62741;51.948;7.152;2023-01-01T01:33:16;100169.00;;;16.50
74326;BMP180;62741;51.948;7.152;2023-01-01T01:35:49;100160.00;;;16.40
74326;BMP180;62741;51.948;7.152;2023-01-01T01:38:16;100165.00;;;16.40
74326;BMP180;62741;51.948;7.152;2023-01-01T01:40:44;100179.00;;;16.30
74326;BMP180;62741;51.948;7.152;2023-01-01T01:43:21;100176.00;;;16.20
74326;BMP180;62741;51.948;7.152;2023-01-01T01:45:53;100177.00;;;16.20
74326;BMP180;62741;51.948;7.152;2023-01-01T01:48:23;100172.00;;;16.10
74326;BMP180;62741;51.948;7.152;2023-01-01T01:50:52;100167.00;;;16.10
74326;BMP180;62741;51.948;7.152;2023-01-01T01:53:24;100164.00;;;16.10
74326;BMP180;62741;51.948;7.152;2023-01-01T01:55:58;100166.00;;;16.00
74326;BMP180;62741;51.948;7.152;2023-01-01T01:58:29;100162.00;;;16.00
74326;BMP180;62741;51.948;7.152;2023-01-01T02:00:58;100167.00;;;16.00
74326;BMP180;62741;51.948;7.152;2023-01-01T02:03:36;100165.00;;;15.90
74326;BMP180;62741;51.948;7.152;2023-01-01T02:06:07;100171.00;;;15.90
74326;BMP180;62741;51.948;7.152;2023-01-01T02:08:34;100167.00;;;15.90
74326;BMP180;62741;51.948;7.152;2023-01-01T02:11:03;100170.00;;;15.90
74326;BMP180;62741;51.948;7.152;2023-01-01T02:13:31;100166.00;;;15.80
74326;BMP180;62741;51.948;7.152;2023-01-01T02:16:06;100176.00;;;15.80
74326;BMP180;62741;51.948;7.152;2023-01-01T02:18:45;100176.00;;;15.80
74326;BMP180;62741;51.948;7.152;2023-01-01T02:21:22;100158.00;;;15.80
74326;BMP180;62741;51.948;7.152;2023-01-01T02:24:11;100187.00;;;15.70
74326;BMP180;62741;51.948;7.152;2023-01-01T02:26:58;100177.00;;;15.70
74326;BMP180;62741;51.948;7.152;2023-01-01T02:29:49;100182.00;;;15.70
74326;BMP180;62741;51.948;7.152;2023-01-01T02:32:21;100184.00;;;15.70
74326;BMP180;62741;51.948;7.152;2023-01-01T02:34:57;100169.00;;;15.70
74326;BMP180;62741;51.948;7.152;2023-01-01T02:37:46;100206.00;;;15.70
74326;BMP180;62741;51.948;7.152;2023-01-01T02:40:15;100196.00;;;15.60
74326;BMP180;62741;51.948;7.152;2023-01-01T02:42:44;100174.00;;;15.70
74326;BMP180;62741;51.948;7.152;2023-01-01T02:45:13;100190.00;;;15.60
74326;BMP180;62741;51.948;7.152;2023-01-01T02:47:40;100199.00;;;15.60
74326;BMP180;62741;51.948;7.152;2023-01-01T02:50:14;100193.00;;;15.60
74326;BMP180;62741;51.948;7.152;2023-01-01T02:53:02;100192.00;;;15.60
74326;BMP180;62741;51.948;7.152;2023-01-01T02:55:47;100202.00;;;15.60
74326;BMP180;62741;51.948;7.152;2023-01-01T02:58:24;100210.00;;;15.60
74326;BMP180;62741;51.948;7.152;2023-01-01T03:01:21;100211.00;;;15.50
74326;BMP180;62741;51.948;7.152;2023-01-01T03:04:00;100208.00;;;15.50
74326;BMP180;62741;51.948;7.152;2023-01-01T03:06:39;100202.00;;;15.50
74326;BMP180;62741;51.948;7.152;2023-01-01T03:09:20;100231.00;;;15.50
74326;BMP180;62741;51.948;7.152;2023-01-01T03:11:56;100224.00;;;15.40
74326;BMP180;62741;51.948;7.152;2023-01-01T03:14:39;100224.00;;;15.40
74326;BMP180;62741;51.948;7.152;2023-01-01T03:17:26;100223.00;;;15.50
74326;BMP180;62741;51.948;7.152;2023-01-01T03:19:58;100218.00;;;15.50
74326;BMP180;62741;51.948;7.152;2023-01-01T03:22:31;100207.00;;;15.50
74326;BMP180;62741;51.948;7.152;2023-01-01T03:25:05;100217.00;;;15.50
74326;BMP180;62741;51.948;7.152;2023-01-01T03:27:38;100217.00;;;15.50
74326;BMP180;62741;51.948;7.152;2023-01-01T03:30:10;100216.00;;;15.50
74326;BMP180;62741;51.948;7.152;2023-01-01T03:32:51;100223.00;;;15.50
74326;BMP180;62741;51.948;7.152;2023-01-01T03:35:33;100197.00;;;15.50
74326;BMP180;62741;51.948;7.152;2023-01-01T03:38:03;100201.00;;;15.50
74326;BMP180;62741;51.948;7.152;2023-01-01T03:40:36;100197.00;;;15.50
74326;BMP180;62741;51.948;7.152;2023-01-01T03:43:11;100202.00;;;15.40
74326;BMP180;62741;51.948;7.152;2023-01-01T03:45:49;100215.00;;;15.40
74326;BMP180;62741;51.948;7.152;2023-01-01T03:48:18;100212.00;;;15.50
74326;BMP180;62741;51.948;7.152;2023-01-01T03:50:54;100201.00;;;15.40
74326;BMP180;62741;51.948;7.152;2023-01-01T03:53:37;100214.00;;;15.40
74326;BMP180;62741;51.948;7.152;2023-01-01T03:56:13;100231.00;;;15.40
74326;BMP180;62741;51.948;7.152;2023-01-01T03:58:48;100234.00;;;15.30
74326;BMP180;62741;51.948;7.152;2023-01-01T04:01:25;100230.00;;;15.30
74326;BMP180;62741;51.948;7.152;2023-01-01T04:03:56;100229.00;;;15.40
74326;BMP180;62741;51.948;7.152;2023-01-01T04:06:27;100231.00;;;15.40
74326;BMP180;62741;51.948;7.152;2023-01-01T04:08:57;100231.00;;;15.40
74326;BMP180;62741;51.948;7.152;2023-01-01T04:11:30;100219.00;;;15.40
74326;BMP180;62741;51.948;7.152;2023-01-01T04:14:34;100245.00;;;15.40
74326;BMP180;62741;51.948;7.152;2023-01-01T04:17:03;100235.00;;;15.40
74326;BMP180;62741;51.948;7.152;2023-01-01T04:19:32;100236.00;;;15.40
74326;BMP180;62741;51.948;7.152;2023-01-01T04:22:00;100234.00;;;15.40
74326;BMP180;62741;51.948;7.152;2023-01-01T04:24:33;100253.00;;;15.40
74326;BMP180;62741;51.948;7.152;2023-01-01T04:27:00;100223.00;;;15.40
74326;BMP180;62741;51.948;7.152;2023-01-01T04:29:29;100223.00;;;15.40
74326;BMP180;62741;51.948;7.152;2023-01-01T04:31:58;100244.00;;;15.40
74326;BMP180;62741;51.948;7.152;2023-01-01T04:34:26;100253.00;;;15.40
74326;BMP180;62741;51.948;7.152;2023-01-01T04:36:55;100263.00;;;15.40
74326;BMP180;62741;51.948;7.152;2023-01-01T04:39:22;100267.00;;;15.40
74326;BMP180;62741;51.948;7.152;2023-01-01T04:41:49;100277.00;;;15.40
74326;BMP180;62741;51.948;7.152;2023-01-01T04:44:16;100279.00;;;15.40
74326;BMP180;62741;51.948;7.152;2023-01-01T04:46:43;100269.00;;;15.40
74326;BMP180;62741;51.948;7.152;2023-01-01T04:49:14;100261.00;;;15.40
74326;BMP180;62741;51.948;7.152;2023-01-01T04:51:49;100256.00;;;15.40
74326;BMP180;62741;51.948;7.152;2023-01-01T04:54:18;100273.00;;;15.40
74326;BMP180;62741;51.948;7.152;2023-01-01T04:56:45;100268.00;;;15.30
74326;BMP180;62741;51.948;7.152;2023-01-01T04:59:12;100280.00;;;15.40
74326;BMP180;62741;51.948;7.152;2023-01-01T05:01:39;100291.00;;;15.40
74326;BMP180;62741;51.948;7.152;2023-01-01T05:04:06;100274.00;;;15.40
74326;BMP180;62741;51.948;7.152;2023-01-01T05:06:33;100287.00;;;15.40
74326;BMP180;62741;51.948;7.152;2023-01-01T05:09:00;100283.00;;;15.40
74326;BMP180;62741;51.948;7.152;2023-01-01T05:11:44;100270.00;;;15.30
74326;BMP180;62741;51.948;7.152;2023-01-01T05:14:12;100270.00;;;15.30
74326;BMP180;62741;51.948;7.152;2023-01-01T05:16:39;100269.00;;;15.30
74326;BMP180;62741;51.948;7.152;2023-01-01T05:19:07;100273.00;;;15.40
74326;BMP180;62741;51.948;7.152;2023-01-01T05:21:37;100276.00;;;15.30
74326;BMP180;62741;51.948;7.152;2023-01-01T05:24:07;100265.00;;;15.30
74326;BMP180;62741;51.948;7.152;2023-01-01T05:26:38;100263.00;;;15.30
74326;BMP180;62741;51.948;7.152;2023-01-01T05:29:06;100284.00;;;15.40
74326;BMP180;62741;51.948;7.152;2023-01-01T05:31:35;100289.00;;;15.40
74326;BMP180;62741;51.948;7.152;2023-01-01T05:34:03;100289.00;;;15.40
74326;BMP180;62741;51.948;7.152;2023-01-01T05:36:34;100296.00;;;15.20
74326;BMP180;62741;51.948;7.152;2023-01-01T05:39:03;100298.00;;;15.30
74326;BMP180;62741;51.948;7.152;2023-01-01T05:41:31;100299.00;;;15.30
74326;BMP180;62741;51.948;7.152;2023-01-01T05:44:04;100303.00;;;15.30
74326;BMP180;62741;51.948;7.152;2023-01-01T05:46:33;100316.00;;;15.30
74326;BMP180;62741;51.948;7.152;2023-01-01T05:49:00;100322.00;;;15.30
74326;BMP180;62741;51.948;7.152;2023-01-01T05:51:29;100321.00;;;15.30
74326;BMP180;62741;51.948;7.152;2023-01-01T05:53:57;100338.00;;;15.20
74326;BMP180;62741;51.948;7.152;2023-01-01T05:56:25;100342.00;;;15.30
74326;BMP180;62741;51.948;7.152;2023-01-01T05:58:53;100354.00;;;15.30
74326;BMP180;62741;51.948;7.152;2023-01-01T06:01:22;100341.00;;;15.30
74326;BMP180;62741;51.948;7.152;2023-01-01T06:03:53;100343.00;;;15.30
74326;BMP180;62741;51.948;7.152;2023-01-01T06:06:23;100343.00;;;15.30
74326;BMP180;62741;51.948;7.152;2023-01-01T06:08:53;100357.00;;;15.30
74326;BMP180;62741;51.948;7.152;2023-01-01T06:11:21;100367.00;;;15.30
74326;BMP180;62741;51.948;7.152;2023-01-01T06:13:51;100370.00;;;15.30
74326;BMP180;62741;51.948;7.152;2023-01-01T06:16:18;100373.00;;;15.30
74326;BMP180;62741;51.948;7.152;2023-01-01T06:18:46;100373.00;;;15.30
74326;BMP180;62741;51.948;7.152;2023-01-01T06:21:17;100368.00;;;15.30
74326;BMP180;62741;51.948;7.152;2023-01-01T06:23:45;100370.00;;;15.30
74326;BMP180;62741;51.948;7.152;2023-01-01T06:26:23;100375.00;;;15.30
74326;BMP180;62741;51.948;7.152;2023-01-01T06:28:52;100375.00;;;15.40
74326;BMP180;62741;51.948;7.152;2023-01-01T06:31:21;100379.00;;;15.30
74326;BMP180;62741;51.948;7.152;2023-01-01T06:33:49;100382.00;;;15.30
74326;BMP180;62741;51.948;7.152;2023-01-01T06:36:21;100386.00;;;15.30
74326;BMP180;62741;51.948;7.152;2023-01-01T06:38:51;100384.00;;;15.30
74326;BMP180;62741;51.948;7.152;2023-01-01T06:41:29;100410.00;;;15.30
74326;BMP180;62741;51.948;7.152;2023-01-01T06:43:57;100422.00;;;15.30
74326;BMP180;62741;51.948;7.152;2023-01-01T06:46:28;100428.00;;;15.30
74326;BMP180;62741;51.948;7.152;2023-01-01T06:48:58;100411.00;;;15.30
74326;BMP180;62741;51.948;7.152;2023-01-01T06:51:29;100417.00;;;15.30
74326;BMP180;62741;51.948;7.152;2023-01-01T06:53:58;100428.00;;;15.30
74326;BMP180;62741;51.948;7.152;2023-01-01T06:56:26;100427.00;;;15.30
74326;BMP180;62741;51.948;7.152;2023-01-01T06:58:53;100432.00;;;15.30
74326;BMP180;62741;51.948;7.152;2023-01-01T07:01:23;100446.00;;;15.30
74326;BMP180;62741;51.948;7.152;2023-01-01T07:03:53;100454.00;;;15.30
74326;BMP180;62741;51.948;7.152;2023-01-01T07:06:23;100458.00;;;15.30
74326;BMP180;62741;51.948;7.152;2023-01-01T07:08:53;100453.00;;;15.30
74326;BMP180;62741;51.948;7.152;2023-01-01T07:11:21;100461.00;;;15.30
74326;BMP180;62741;51.948;7.152;2023-01-01T07:13:48;100462.00;;;15.30
74326;BMP180;62741;51.948;7.152;2023-01-01T07:16:16;100459.00;;;15.30
74326;BMP180;62741;51.948;7.152;2023-01-01T07:18:44;100462.00;;;15.30
74326;BMP180;62741;51.948;7.152;2023-01-01T07:21:29;100494.00;;;15.30
74326;BMP180;62741;51.948;7.152;2023-01-01T07:24:02;100493.00;;;15.30
74326;BMP180;62741;51.948;7.152;2023-01-01T07:26:31;100483.00;;;15.30
74326;BMP180;62741;51.948;7.152;2023-01-01T07:28:59;100479.00;;;15.30
74326;BMP180;62741;51.948;7.152;2023-01-01T07:31:26;100483.00;;;15.30
74326;BMP180;62741;51.948;7.152;2023-01-01T07:33:54;100495.00;;;15.30
74326;BMP180;62741;51.948;7.152;2023-01-01T07:36:21;100503.00;;;15.30
74326;BMP180;62741;51.948;7.152;2023-01-01T07:38:48;100506.00;;;15.30
74326;BMP180;62741;51.948;7.152;2023-01-01T07:41:16;100516.00;;;15.30
74326;BMP180;62741;51.948;7.152;2023-01-01T07:43:43;100515.00;;;15.30
74326;BMP180;62741;51.948;7.152;2023-01-01T07:46:12;100533.00;;;15.30
74326;BMP180;62741;51.948;7.152;2023-01-01T07:48:41;100541.00;;;15.30
74326;BMP180;62741;51.948;7.152;2023-01-01T07:51:08;100545.00;;;15.30
74326;BMP180;62741;51.948;7.152;2023-01-01T07:53:35;100548.00;;;15.30
74326;BMP180;62741;51.948;7.152;2023-01-01T07:56:02;100565.00;;;15.30
74326;BMP180;62741;51.948;7.152;2023-01-01T07:58:31;100569.00;;;15.30
74326;BMP180;62741;51.948;7.152;2023-01-01T08:00:58;100587.00;;;15.20
74326;BMP180;62741;51.948;7.152;2023-01-01T08:03:25;100606.00;;;15.30
74326;BMP180;62741;51.948;7.152;2023-01-01T08:05:52;100611.00;;;15.30
74326;BMP180;62741;51.948;7.152;2023-01-01T08:08:19;100612.00;;;15.30
74326;BMP180;62741;51.948;7.152;2023-01-01T08:10:46;100628.00;;;15.30
74326;BMP180;62741;51.948;7.152;2023-01-01T08:13:13;100645.00;;;15.30
74326;BMP180;62741;51.948;7.152;2023-01-01T08:15:41;100640.00;;;15.30
74326;BMP180;62741;51.948;7.152;2023-01-01T08:18:08;100657.00;;;15.30
74326;BMP180;62741;51.948;7.152;2023-01-01T08:20:36;100649.00;;;15.30
74326;BMP180;62741;51.948;7.152;2023-01-01T08:23:03;100646.00;;;15.30
74326;BMP180;62741;51.948;7.152;2023-01-01T08:25:30;100653.00;;;15.30
74326;BMP180;62741;51.948;7.152;2023-01-01T08:27:57;100655.00;;;15.30
74326;BMP180;62741;51.948;7.152;2023-01-01T08:30:25;100650.00;;;15.30
74326;BMP180;62741;51.948;7.152;2023-01-01T08:32:54;100666.00;;;15.30
74326;BMP180;62741;51.948;7.152;2023-01-01T08:35:21;100669.00;;;15.30
74326;BMP180;62741;51.948;7.152;2023-01-01T08:37:48;100674.00;;;15.30
74326;BMP180;62741;51.948;7.152;2023-01-01T08:40:15;100675.00;;;15.30
74326;BMP180;62741;51.948;7.152;2023-01-01T08:42:42;100678.00;;;15.30
74326;BMP180;62741;51.948;7.152;2023-01-01T08:45:10;100690.00;;;15.30
74326;BMP180;62741;51.948;7.152;2023-01-01T08:47:37;100690.00;;;15.30
74326;BMP180;62741;51.948;7.152;2023-01-01T08:50:07;100683.00;;;15.30
74326;BMP180;62741;51.948;7.152;2023-01-01T08:52:34;100679.00;;;15.30
74326;BMP180;62741;51.948;7.152;2023-01-01T08:55:01;100692.00;;;15.30
74326;BMP180;62741;51.948;7.152;2023-01-01T08:57:29;100703.00;;;15.30
74326;BMP180;62741;51.948;7.152;2023-01-01T08:59:57;100706.00;;;15.30
74326;BMP180;62741;51.948;7.152;2023-01-01T09:02:24;100718.00;;;15.30
74326;BMP180;62741;51.948;7.152;2023-01-01T09:04:51;100720.00;;;15.30
74326;BMP180;62741;51.948;7.152;2023-01-01T09:07:19;100725.00;;;15.30
74326;BMP180;62741;51.948;7.152;2023-01-01T09:09:46;100734.00;;;15.30
74326;BMP180;62741;51.948;7.152;2023-01-01T09:12:15;100742.00;;;15.30
74326;BMP180;62741;51.948;7.152;2023-01-01T09:14:42;100740.00;;;15.10
74326;BMP180;62741;51.948;7.152;2023-01-01T09:17:12;100736.00;;;15.20
74326;BMP180;62741;51.948;7.152;2023-01-01T09:19:39;100745.00;;;15.20
74326;BMP180;62741;51.948;7.152;2023-01-01T09:22:08;100749.00;;;15.20
74326;BMP180;62741;51.948;7.152;2023-01-01T09:24:37;100739.00;;;15.20
74326;BMP180;62741;51.948;7.152;2023-01-01T09:27:04;100737.00;;;15.20
74326;BMP180;62741;51.948;7.152;2023-01-01T09:29:37;100741.00;;;15.30
74326;BMP180;62741;51.948;7.152;2023-01-01T09:32:05;100734.00;;;15.20
74326;BMP180;62741;51.948;7.152;2023-01-01T09:34:32;100735.00;;;15.30
74326;BMP180;62741;51.948;7.152;2023-01-01T09:36:59;100734.00;;;15.30
74326;BMP180;62741;51.948;7.152;2023-01-01T09:39:26;100743.00;;;15.30
74326;BMP180;62741;51.948;7.152;2023-01-01T09:42:21;100740.00;;;15.20
74326;BMP180;62741;51.948;7.152;2023-01-01T09:45:04;100745.00;;;15.20
74326;BMP180;62741;51.948;7.152;2023-01-01T09:47:39;100738.00;;;15.20
74326;BMP180;62741;51.948;7.152;2023-01-01T09:50:13;100742.00;;;15.20
74326;BMP180;62741;51.948;7.152;2023-01-01T09:52:48;100739.00;;;15.20
74326;BMP180;62741;51.948;7.152;2023-01-01T09:55:24;100759.00;;;15.20
74326;BMP180;62741;51.948;7.152;2023-01-01T09:57:54;100768.00;;;15.20
74326;BMP180;62741;51.948;7.152;2023-01-01T10:00:22;100769.00;;;15.20
74326;BMP180;62741;51.948;7.152;2023-01-01T10:03:06;100758.00;;;15.20
74326;BMP180;62741;51.948;7.152;2023-01-01T10:05:48;100772.00;;;15.20
74326;BMP180;62741;51.948;7.152;2023-01-01T10:08:30;100771.00;;;15.20
74326;BMP180;62741;51.948;7.152;2023-01-01T10:11:11;100759.00;;;15.20
74326;BMP180;62741;51.948;7.152;2023-01-01T10:13:45;100759.00;;;15.20
74326;BMP180;62741;51.948;7.152;2023-01-01T10:16:22;100754.00;;;15.20
74326;BMP180;62741;51.948;7.152;2023-01-01T10:18:57;100749.00;;;15.20
74326;BMP180;62741;51.948;7.152;2023-01-01T10:21:31;100736.00;;;15.20
74326;BMP180;62741;51.948;7.152;2023-01-01T10:24:04;100727.00;;;15.20
74326;BMP180;62741;51.948;7.152;2023-01-01T10:26:37;100721.00;;;15.20
74326;BMP180;62741;51.948;7.152;2023-01-01T10:29:14;100730.00;;;15.20
74326;BMP180;62741;51.948;7.152;2023-01-01T10:31:45;100736.00;;;15.20
74326;BMP180;62741;51.948;7.152;2023-01-01T10:34:18;100734.00;;;15.20
74326;BMP180;62741;51.948;7.152;2023-01-01T10:36:46;100726.00;;;15.20
74326;BMP180;62741;51.948;7.152;2023-01-01T10:39:18;100724.00;;;15.20
74326;BMP180;62741;51.948;7.152;2023-01-01T10:41:46;100736.00;;;15.20
74326;BMP180;62741;51.948;7.152;2023-01-01T10:44:19;100728.00;;;15.20
74326;BMP180;62741;51.948;7.152;2023-01-01T10:46:55;100719.00;;;15.20
74326;BMP180;62741;51.948;7.152;2023-01-01T10:49:22;100712.00;;;15.20
74326;BMP180;62741;51.948;7.152;2023-01-01T10:51:52;100714.00;;;15.20
74326;BMP180;62741;51.948;7.152;2023-01-01T10:54:31;100705.00;;;15.20
74326;BMP180;62741;51.948;7.152;2023-01-01T10:57:12;100731.00;;;15.20
74326;BMP180;62741;51.948;7.152;2023-01-01T10:59:43;100707.00;;;15.20
74326;BMP180;62741;51.948;7.152;2023-01-01T11:02:18;100707.00;;;15.20
74326;BMP180;62741;51.948;7.152;2023-01-01T11:05:12;100721.00;;;15.20
74326;BMP180;62741;51.948;7.152;2023-01-01T11:07:41;100733.00;;;15.20
74326;BMP180;62741;51.948;7.152;2023-01-01T11:10:16;100734.00;;;15.20
74326;BMP180;62741;51.948;7.152;2023-01-01T11:12:53;100729.00;;;15.20
74326;BMP180;62741;51.948;7.152;2023-01-01T11:15:34;100734.00;;;15.20
74326;BMP180;62741;51.948;7.152;2023-01-01T11:18:03;100738.00;;;15.20
74326;BMP180;62741;51.948;7.152;2023-01-01T11:20:32;100742.00;;;15.20
74326;BMP180;62741;51.948;7.152;2023-01-01T11:23:17;100741.00;;;15.10
74326;BMP180;62741;51.948;7.152;2023-01-01T11:26:01;100744.00;;;15.10
74326;BMP180;62741;51.948;7.152;2023-01-01T11:28:29;100739.00;;;15.20
74326;BMP180;62741;51.948;7.152;2023-01-01T11:31:15;100743.00;;;15.20
74326;BMP180;62741;51.948;7.152;2023-01-01T11:33:47;100748.00;;;15.20
74326;BMP180;62741;51.948;7.152;2023-01-01T11:36:30;100744.00;;;15.20
74326;BMP180;62741;51.948;7.152;2023-01-01T11:39:17;100754.00;;;15.20
74326;BMP180;62741;51.948;7.152;2023-01-01T11:41:54;100752.00;;;15.20
74326;BMP180;62741;51.948;7.152;2023-01-01T11:44:31;100753.00;;;15.20
74326;BMP180;62741;51.948;7.152;2023-01-01T11:47:03;100756.00;;;15.10
74326;BMP180;62741;51.948;7.152;2023-01-01T11:49:32;100744.00;;;15.20
74326;BMP180;62741;51.948;7.152;2023-01-01T11:52:00;100749.00;;;15.20
74326;BMP180;62741;51.948;7.152;2023-01-01T11:54:47;100752.00;;;15.20
74326;BMP180;62741;51.948;7.152;2023-01-01T11:57:21;100753.00;;;15.20
74326;BMP180;62741;51.948;7.152;2023-01-01T11:59:54;100756.00;;;15.20
74326;BMP180;62741;51.948;7.152;2023-01-01T12:02:34;100750.00;;;15.20
74326;BMP180;62741;51.948;7.152;2023-01-01T12:05:13;100740.00;;;15.20
74326;BMP180;62741;51.948;7.152;2023-01-01T12:07:43;100739.00;;;15.30
74326;BMP180;62741;51.948;7.152;2023-01-01T12:10:21;100738.00;;;15.20
74326;BMP180;62741;51.948;7.152;2023-01-01T12:12:56;100743.00;;;15.30
74326;BMP180;62741;51.948;7.152;2023-01-01T12:15:29;100733.00;;;15.30
74326;BMP180;62741;51.948;7.152;2023-01-01T12:18:07;100730.00;;;15.30
74326;BMP180;62741;51.948;7.152;2023-01-01T12:20:44;100726.00;;;15.30
74326;BMP180;62741;51.948;7.152;2023-01-01T12:23:17;100718.00;;;15.30
74326;BMP180;62741;51.948;7.152;2023-01-01T12:25:56;100730.00;;;15.30
74326;BMP180;62741;51.948;7.152;2023-01-01T12:28:40;100719.00;;;15.30
74326;BMP180;62741;51.948;7.152;2023-01-01T12:31:18;100728.00;;;15.30
74326;BMP180;62741;51.948;7.152;2023-01-01T12:34:12;100731.00;;;15.30
74326;BMP180;62741;51.948;7.152;2023-01-01T12:36:48;100728.00;;;15.30
74326;BMP180;62741;51.948;7.152;2023-01-01T12:43:04;100741.00;;;15.30
74326;BMP180;62741;51.948;7.152;2023-01-01T12:49:36;100758.00;;;15.20
74326;BMP180;62741;51.948;7.152;2023-01-01T12:52:22;100761.00;;;15.20
74326;BMP180;62741;51.948;7.152;2023-01-01T12:55:41;100753.00;;;15.20
74326;BMP180;62741;51.948;7.152;2023-01-01T12:58:18;100746.00;;;15.20
74326;BMP180;62741;51.948;7.152;2023-01-01T13:00:54;100756.00;;;15.30
74326;BMP180;62741;51.948;7.152;2023-01-01T13:03:28;100756.00;;;15.20
74326;BMP180;62741;51.948;7.152;2023-01-01T13:05:59;100753.00;;;15.30
74326;BMP180;62741;51.948;7.152;2023-01-01T13:08:27;100757.00;;;15.30
74326;BMP180;62741;51.948;7.152;2023-01-01T13:10:57;100747.00;;;15.30
74326;BMP180;62741;51.948;7.152;2023-01-01T13:13:35;100747.00;;;15.30
74326;BMP180;62741;51.948;7.152;2023-01-01T13:16:03;100761.00;;;15.30
74326;BMP180;62741;51.948;7.152;2023-01-01T13:18:33;100761.00;;;15.30
74326;BMP180;62741;51.948;7.152;2023-01-01T13:21:14;100771.00;;;15.30
74326;BMP180;62741;51.948;7.152;2023-01-01T13:23:49;100762.00;;;15.30
74326;BMP180;62741;51.948;7.152;2023-01-01T13:26:40;100769.00;;;15.30
74326;BMP180;62741;51.948;7.152;2023-01-01T13:29:44;100781.00;;;15.20
74326;BMP180;62741;51.948;7.152;2023-01-01T13:32:13;100782.00;;;15.30
74326;BMP180;62741;51.948;7.152;2023-01-01T13:35:15;100773.00;;;15.20
74326;BMP180;62741;51.948;7.152;2023-01-01T13:37:46;100765.00;;;15.30
74326;BMP180;62741;51.948;7.152;2023-01-01T13:40:38;100770.00;;;15.20
74326;BMP180;62741;51.948;7.152;2023-01-01T13:43:26;100775.00;;;15.20
74326;BMP180;62741;51.948;7.152;2023-01-01T13:45:54;100752.00;;;15.30
74326;BMP180;62741;51.948;7.152;2023-01-01T13:48:44;100757.00;;;15.20
74326;BMP180;62741;51.948;7.152;2023-01-01T13:51:48;100754.00;;;15.20
74326;BMP180;62741;51.948;7.152;2023-01-01T13:54:50;100782.00;;;15.20
74326;BMP180;62741;51.948;7.152;2023-01-01T13:57:57;100766.00;;;15.20
74326;BMP180;62741;51.948;7.152;2023-01-01T14:00:34;100766.00;;;15.20
74326;BMP180;62741;51.948;7.152;2023-01-01T14:03:12;100740.00;;;15.20
74326;BMP180;62741;51.948;7.152;2023-01-01T14:05:48;100752.00;;;15.20
74326;BMP180;62741;51.948;7.152;2023-01-01T14:08:36;100762.00;;;15.20
74326;BMP180;62741;51.948;7.152;2023-01-01T14:11:22;100774.00;;;15.20
74326;BMP180;62741;51.948;7.152;2023-01-01T14:13:50;100767.00;;;15.30
74326;BMP180;62741;51.948;7.152;2023-01-01T14:16:20;100768.00;;;15.30
74326;BMP180;62741;51.948;7.152;2023-01-01T14:18:51;100771.00;;;15.30
74326;BMP180;62741;51.948;7.152;2023-01-01T14:21:24;100767.00;;;15.30
74326;BMP180;62741;51.948;7.152;2023-01-01T14:24:01;100780.00;;;15.30
74326;BMP180;62741;51.948;7.152;2023-01-01T14:26:33;100767.00;;;15.20
74326;BMP180;62741;51.948;7.152;2023-01-01T14:29:08;100798.00;;;15.20
74326;BMP180;62741;51.948;7.152;2023-01-01T14:31:41;100791.00;;;15.20
74326;BMP180;62741;51.948;7.152;2023-01-01T14:34:28;100797.00;;;15.20
74326;BMP180;62741;51.948;7.152;2023-01-01T14:36:59;100787.00;;;15.30